| time (UTC) | temp F | wind direction | speed MPH | gust MPH | rain 1hr in | rain 24hr in | rain mn in | humidity % | barometer mb |
| 20260507211047 | 58 | 338 | 2.0 | 2.0 | 0.00 | 0.00 | 0.01 | 63 | 1012.6 |
| 20260507210047 | 58 | 248 | 3.0 | 4.0 | 0.00 | 0.00 | 0.01 | 57 | 1012.6 |
| 20260507205047 | 61 | 360 | 3.0 | 4.0 | 0.00 | 0.00 | 0.01 | 54 | 1012.6 |
| 20260507204047 | 59 | 225 | 3.0 | 4.0 | 0.00 | 0.00 | 0.01 | 64 | 1012.6 |
| 20260507203049 | 59 | 338 | 3.0 | 4.0 | 0.00 | 0.00 | 0.01 | 60 | 1012.6 |
| 20260507202047 | 60 | 360 | 2.0 | 3.0 | 0.00 | 0.00 | 0.01 | 54 | 1012.6 |
| 20260507201047 | 59 | 338 | 3.0 | 4.0 | 0.00 | 0.00 | 0.01 | 56 | 1012.6 |
| 20260507200047 | 58 | 315 | 3.0 | 4.0 | 0.00 | 0.00 | 0.01 | 62 | 1012.6 |
| 20260507195047 | 59 | 293 | 3.0 | 4.0 | 0.00 | 0.00 | 0.01 | 59 | 1012.9 |
| 20260507194047 | 59 | 135 | 3.0 | 3.0 | 0.00 | 0.00 | 0.01 | 63 | 1012.9 |
| 20260507193047 | 58 | 113 | 3.0 | 3.0 | 0.00 | 0.00 | 0.01 | 61 | 1012.9 |
| 20260507192047 | 61 | 158 | 1.0 | 2.0 | 0.00 | 0.00 | 0.01 | 58 | 1012.9 |
| 20260507191047 | 63 | 45 | 1.0 | 2.0 | 0.00 | 0.00 | 0.01 | 53 | 1013.2 |
| 20260507190046 | 64 | 45 | 1.0 | 2.0 | 0.00 | 0.00 | 0.01 | 52 | 1013.6 |
| 20260507185049 | 60 | 360 | 3.0 | 4.0 | 0.00 | 0.00 | 0.01 | 57 | 1013.2 |
| 20260507184047 | 58 | 68 | 1.0 | 2.0 | 0.00 | 0.00 | 0.01 | 60 | 1013.2 |
| 20260507183047 | 58 | 225 | 2.0 | 3.0 | 0.00 | 0.00 | 0.01 | 60 | 1013.2 |
| 20260507182049 | 56 | 135 | 2.0 | 3.0 | 0.00 | 0.00 | 0.01 | 69 | 1013.6 |
| 20260507181047 | 56 | 113 | 2.0 | 2.0 | 0.00 | 0.00 | 0.01 | 62 | 1013.6 |
| 20260507180046 | 58 | 23 | 1.0 | 2.0 | 0.00 | 0.00 | 0.01 | 63 | 1013.6 |
| 20260507175047 | 54 | 315 | 2.0 | 2.0 | 0.00 | 0.00 | 0.01 | 69 | 1013.6 |
| 20260507174047 | 52 | 203 | 2.0 | 2.0 | 0.00 | 0.00 | 0.01 | 74 | 1013.9 |
| 20260507173047 | 53 | 135 | 1.0 | 2.0 | 0.00 | 0.00 | 0.01 | 75 | 1013.9 |
| 20260507172049 | 54 | 203 | 0.0 | 1.0 | 0.00 | 0.00 | 0.01 | 73 | 1014.3 |
| 20260507171046 | 53 | 113 | 1.0 | 2.0 | 0.00 | 0.00 | 0.01 | 68 | 1014.3 |
| 20260507170049 | 54 | 23 | 2.0 | 3.0 | 0.00 | 0.00 | 0.01 | 65 | 1014.3 |
| 20260507165047 | 54 | 90 | 1.0 | 2.0 | 0.00 | 0.00 | 0.01 | 63 | 1014.3 |
| 20260507164047 | 52 | 113 | 0.0 | 2.0 | 0.00 | 0.00 | 0.01 | 69 | 1014.6 |
| 20260507163049 | 54 | 135 | 2.0 | 2.0 | 0.00 | 0.00 | 0.01 | 65 | 1014.6 |
| 20260507162047 | 52 | 135 | 0.0 | 0.0 | 0.00 | 0.00 | 0.01 | 67 | 1014.6 |
| 20260507161048 | 53 | 293 | 0.0 | 1.0 | 0.00 | 0.00 | 0.01 | 69 | 1014.9 |
| 20260507160048 | 52 | 68 | 1.0 | 2.0 | 0.00 | 0.00 | 0.01 | 68 | 1015.3 |
| 20260507155047 | 50 | 23 | 1.0 | 2.0 | 0.00 | 0.00 | 0.01 | 74 | 1015.3 |
| 20260507154047 | 49 | 68 | 1.0 | 2.0 | 0.00 | 0.00 | 0.01 | 75 | 1015.3 |
| 20260507153050 | 51 | 68 | 2.0 | 2.0 | 0.00 | 0.00 | 0.01 | 75 | 1014.9 |
| 20260507152050 | 49 | 293 | 2.0 | 3.0 | 0.00 | 0.00 | 0.01 | 78 | 1014.9 |
| 20260507151047 | 47 | 45 | 0.0 | 1.0 | 0.00 | 0.00 | 0.01 | 83 | 1015.3 |
| 20260507150049 | 46 | 45 | 1.0 | 2.0 | 0.00 | 0.00 | 0.01 | 85 | 1015.3 |
| 20260507145047 | 46 | 293 | 2.0 | 3.0 | 0.00 | 0.00 | 0.01 | 87 | 1015.3 |
| 20260507144047 | 45 | 90 | 1.0 | 2.0 | 0.00 | 0.00 | 0.01 | 91 | 1015.3 |
| 20260507143050 | 45 | 23 | 1.0 | 2.0 | 0.00 | 0.00 | 0.01 | 92 | 1015.6 |
| 20260507142049 | 45 | 45 | 1.0 | 2.0 | 0.00 | 0.00 | 0.01 | 93 | 1015.6 |
| 20260507141047 | 45 | 45 | 1.0 | 2.0 | 0.00 | 0.00 | 0.01 | 94 | 1015.6 |
| 20260507140047 | 44 | 113 | 1.0 | 1.0 | 0.00 | 0.00 | 0.01 | 96 | 1015.6 |
| 20260507135047 | 44 | 45 | 2.0 | 3.0 | 0.00 | 0.00 | 0.01 | 96 | 1016.0 |
| 20260507134047 | 44 | 90 | 2.0 | 3.0 | 0.00 | 0.00 | 0.01 | 97 | 1016.0 |
| 20260507133048 | 44 | 360 | 2.0 | 2.0 | 0.00 | 0.00 | 0.01 | 97 | 1015.6 |
| 20260507132048 | 44 | 135 | 2.0 | 2.0 | 0.00 | 0.00 | 0.01 | 96 | 1016.0 |
| 20260507131047 | 44 | 23 | 2.0 | 3.0 | 0.00 | 0.00 | 0.01 | 96 | 1016.0 |
| 20260507130047 | 44 | 23 | 1.0 | 1.0 | 0.00 | 0.00 | 0.01 | 95 | 1016.0 |
| 20260507125047 | 44 | 68 | 1.0 | 2.0 | 0.00 | 0.00 | 0.01 | 95 | 1016.0 |
| 20260507124047 | 45 | 45 | 2.0 | 2.0 | 0.00 | 0.00 | 0.01 | 94 | 1016.0 |
| 20260507123047 | 45 | 68 | 0.0 | 1.0 | 0.00 | 0.00 | 0.01 | 94 | 1016.0 |
| 20260507122047 | 44 | 360 | 2.0 | 3.0 | 0.00 | 0.00 | 0.01 | 94 | 1015.6 |
| 20260507121047 | 44 | 23 | 2.0 | 3.0 | 0.00 | 0.00 | 0.01 | 94 | 1015.6 |
| 20260507120047 | 44 | 23 | 3.0 | 3.0 | 0.00 | 0.00 | 0.01 | 94 | 1015.6 |
| 20260507115047 | 44 | 23 | 2.0 | 2.0 | 0.00 | 0.00 | 0.01 | 94 | 1015.6 |
| 20260507114047 | 44 | 45 | 1.0 | 2.0 | 0.00 | 0.00 | 0.01 | 94 | 1015.6 |
| 20260507113047 | 44 | 45 | 1.0 | 2.0 | 0.00 | 0.00 | 0.01 | 94 | 1015.6 |
| 20260507112047 | 44 | 23 | 2.0 | 2.0 | 0.00 | 0.00 | 0.01 | 94 | 1015.6 |
| 20260507111049 | 44 | 23 | 2.0 | 2.0 | 0.00 | 0.00 | 0.01 | 94 | 1015.3 |
| 20260507110052 | 44 | 23 | 3.0 | 4.0 | 0.00 | 0.00 | 0.01 | 94 | 1014.9 |
| 20260507105049 | 44 | 45 | 1.0 | 2.0 | 0.00 | 0.00 | 0.01 | 95 | 1015.3 |
| 20260507104049 | 44 | 68 | 1.0 | 2.0 | 0.00 | 0.00 | 0.01 | 96 | 1015.3 |
| 20260507103048 | 44 | 45 | 1.0 | 2.0 | 0.00 | 0.00 | 0.01 | 96 | 1014.9 |
| 20260507102047 | 44 | 45 | 1.0 | 2.0 | 0.00 | 0.00 | 0.01 | 96 | 1015.3 |
| 20260507101047 | 44 | 45 | 0.0 | 1.0 | 0.00 | 0.00 | 0.01 | 96 | 1015.3 |
| 20260507100047 | 44 | 23 | 2.0 | 3.0 | 0.00 | 0.00 | 0.01 | 96 | 1015.3 |
| 20260507095047 | 44 | 360 | 4.0 | 4.0 | 0.00 | 0.00 | 0.01 | 97 | 1014.9 |
| 20260507094049 | 44 | 23 | 3.0 | 3.0 | 0.00 | 0.00 | 0.01 | 97 | 1014.9 |
| 20260507093047 | 43 | 23 | 2.0 | 3.0 | 0.00 | 0.00 | 0.01 | 98 | 1014.9 |
| 20260507092048 | 43 | 360 | 3.0 | 5.0 | 0.00 | 0.00 | 0.01 | 98 | 1014.9 |
| 20260507091047 | 43 | 360 | 2.0 | 2.0 | 0.00 | 0.00 | 0.01 | 99 | 1015.3 |
| 20260507090048 | 43 | 23 | 3.0 | 4.0 | 0.00 | 0.00 | 0.01 | 99 | 1014.9 |
| 20260507085047 | 43 | 360 | 4.0 | 5.0 | 0.00 | 0.00 | 0.01 | 99 | 1014.6 |
| 20260507084047 | 43 | 45 | 3.0 | 4.0 | 0.00 | 0.00 | 0.01 | 99 | 1014.3 |
| 20260507083049 | 44 | 45 | 2.0 | 2.0 | 0.00 | 0.00 | 0.01 | 99 | 1014.6 |
| 20260507082047 | 44 | 23 | 2.0 | 2.0 | 0.00 | 0.00 | 0.01 | 99 | 1014.9 |
| 20260507081047 | 44 | 45 | 1.0 | 2.0 | 0.00 | 0.00 | 0.01 | 99 | 1015.3 |
| 20260507080050 | 45 | 68 | 2.0 | 2.0 | 0.00 | 0.00 | 0.01 | 99 | 1015.3 |
| 20260507075047 | 45 | 45 | 2.0 | 2.0 | 0.00 | 0.00 | 0.01 | 99 | 1015.3 |
| 20260507074050 | 45 | 45 | 1.0 | 2.0 | 0.00 | 0.00 | 0.01 | 99 | 1015.3 |
| 20260507073047 | 45 | 68 | 3.0 | 4.0 | 0.00 | 0.00 | 0.01 | 99 | 1014.9 |
| 20260507072047 | 46 | 23 | 2.0 | 2.0 | 0.00 | 0.00 | 0.01 | 99 | 1014.3 |
| 20260507071049 | 46 | 23 | 3.0 | 5.0 | 0.00 | 0.00 | 0.01 | 99 | 1014.6 |
| 20260507070047 | 46 | 45 | 3.0 | 3.0 | 0.00 | 0.00 | 0.01 | 99 | 1014.3 |
| 20260507065047 | 47 | 45 | 1.0 | 2.0 | 0.00 | 0.00 | 0.01 | 99 | 1014.6 |
| 20260507064047 | 47 | 23 | 2.0 | 3.0 | 0.00 | 0.00 | 0.01 | 99 | 1014.9 |
| 20260507063047 | 48 | 23 | 2.0 | 4.0 | 0.00 | 0.00 | 0.01 | 99 | 1014.9 |
| 20260507062047 | 48 | 68 | 2.0 | 2.0 | 0.00 | 0.00 | 0.01 | 99 | 1014.9 |
| 20260507061047 | 49 | 68 | 0.0 | 1.0 | 0.00 | 0.00 | 0.01 | 99 | 1014.9 |
| 20260507060047 | 49 | 23 | 3.0 | 3.0 | 0.00 | 0.00 | 0.01 | 99 | 1015.3 |
| 20260507055047 | 49 | 45 | 1.0 | 2.0 | 0.00 | 0.00 | 0.01 | 99 | 1015.3 |
| 20260507054047 | 49 | 68 | 0.0 | 2.0 | 0.00 | 0.00 | 0.01 | 99 | 1015.3 |
| 20260507053047 | 50 | 45 | 2.0 | 3.0 | 0.00 | 0.00 | 0.01 | 99 | 1015.3 |
| 20260507052046 | 50 | 45 | 2.0 | 3.0 | 0.00 | 0.00 | 0.01 | 99 | 1014.9 |
| 20260507051047 | 50 | 23 | 3.0 | 5.0 | 0.00 | 0.00 | 0.01 | 99 | 1014.9 |
| 20260507050047 | 50 | 23 | 3.0 | 5.0 | 0.00 | 0.00 | 0.01 | 99 | 1014.9 |
| 20260507045047 | 52 | 360 | 2.0 | 3.0 | 0.00 | 0.00 | 0.01 | 99 | 1014.6 |
| 20260507044048 | 52 | 360 | 1.0 | 2.0 | 0.00 | 0.00 | 0.01 | 99 | 1014.9 |
| 20260507043049 | 51 | 90 | 0.0 | 1.0 | 0.00 | 0.00 | 0.01 | 99 | 1014.6 |
| 20260507042046 | 52 | 180 | 2.0 | 3.0 | 0.00 | 0.00 | 0.00 | 99 | 1014.3 |
| 20260507041047 | 53 | 90 | 3.0 | 4.0 | 0.00 | 0.00 | 0.00 | 98 | 1014.6 |
| 20260507040048 | 53 | 158 | 1.0 | 2.0 | 0.00 | 0.00 | 0.00 | 98 | 1014.9 |
| 20260507035049 | 53 | 270 | 0.0 | 1.0 | 0.00 | 0.00 | 0.66 | 98 | 1015.3 |
| 20260507034047 | 53 | 360 | 3.0 | 5.0 | 0.00 | 0.00 | 0.63 | 98 | 1015.3 |
| 20260507033047 | 54 | 68 | 0.0 | 1.0 | 0.00 | 0.00 | 0.62 | 98 | 1015.3 |
| 20260507032047 | 54 | 113 | 1.0 | 2.0 | 0.00 | 0.00 | 0.62 | 97 | 1015.3 |
| 20260507031047 | 54 | 90 | 1.0 | 2.0 | 0.00 | 0.00 | 0.61 | 97 | 1014.9 |
| 20260507030047 | 55 | 360 | 0.0 | 0.0 | 0.00 | 0.00 | 0.60 | 97 | 1015.3 |
| 20260507025047 | 55 | 360 | 0.0 | 0.0 | 0.00 | 0.00 | 0.59 | 97 | 1015.3 |
| 20260507024047 | 56 | 360 | 2.0 | 2.0 | 0.00 | 0.00 | 0.56 | 95 | 1015.3 |
| 20260507023047 | 56 | 23 | 2.0 | 2.0 | 0.00 | 0.00 | 0.56 | 95 | 1014.9 |
| 20260507022047 | 56 | 90 | 0.0 | 0.0 | 0.00 | 0.00 | 0.56 | 96 | 1014.9 |
| 20260507021048 | 56 | 135 | 1.0 | 2.0 | 0.00 | 0.00 | 0.56 | 95 | 1014.6 |
| 20260507020047 | 56 | 338 | 2.0 | 3.0 | 0.00 | 0.00 | 0.56 | 93 | 1014.9 |
| 20260507015047 | 55 | 45 | 3.0 | 3.0 | 0.00 | 0.00 | 0.56 | 96 | 1014.9 |
| 20260507014047 | 55 | 23 | 1.0 | 2.0 | 0.00 | 0.00 | 0.56 | 97 | 1015.3 |
| 20260507013047 | 55 | 113 | 1.0 | 2.0 | 0.00 | 0.00 | 0.56 | 97 | 1014.6 |
| 20260507012047 | 55 | 90 | 1.0 | 2.0 | 0.00 | 0.00 | 0.56 | 96 | 1014.6 |
| 20260507011047 | 56 | 158 | 2.0 | 2.0 | 0.00 | 0.00 | 0.56 | 95 | 1014.3 |
| 20260507010047 | 56 | 23 | 1.0 | 2.0 | 0.00 | 0.00 | 0.55 | 93 | 1014.9 |
| 20260507005047 | 56 | 360 | 3.0 | 4.0 | 0.00 | 0.00 | 0.55 | 92 | 1014.9 |
| 20260507004048 | 56 | 360 | 3.0 | 5.0 | 0.00 | 0.00 | 0.55 | 93 | 1014.9 |
| 20260507003047 | 56 | 338 | 4.0 | 5.0 | 0.00 | 0.00 | 0.55 | 93 | 1014.9 |
| 20260507002048 | 57 | 360 | 4.0 | 5.0 | 0.00 | 0.00 | 0.55 | 94 | 1014.9 |
| 20260507001047 | 57 | 338 | 5.0 | 6.0 | 0.00 | 0.00 | 0.55 | 93 | 1014.9 |
| 20260507000047 | 58 | 23 | 4.0 | 5.0 | 0.00 | 0.00 | 0.55 | 93 | 1014.3 |
| 20260506235046 | 59 | 45 | 3.0 | 5.0 | 0.00 | 0.00 | 0.55 | 92 | 1014.3 |
| 20260506234047 | 60 | 360 | 3.0 | 5.0 | 0.00 | 0.00 | 0.55 | 91 | 1014.6 |
| 20260506233047 | 60 | 23 | 4.0 | 5.0 | 0.00 | 0.00 | 0.55 | 91 | 1014.3 |
| 20260506232046 | 60 | 23 | 2.0 | 3.0 | 0.00 | 0.00 | 0.55 | 93 | 1014.3 |
| 20260506231047 | 60 | 23 | 2.0 | 2.0 | 0.00 | 0.00 | 0.55 | 92 | 1014.3 |
| 20260506230048 | 61 | 338 | 3.0 | 4.0 | 0.00 | 0.00 | 0.55 | 90 | 1014.3 |
| 20260506225047 | 62 | 338 | 2.0 | 3.0 | 0.00 | 0.00 | 0.55 | 90 | 1013.9 |
| 20260506224047 | 62 | 360 | 2.0 | 2.0 | 0.00 | 0.00 | 0.55 | 90 | 1014.3 |
| 20260506223047 | 63 | 315 | 2.0 | 2.0 | 0.00 | 0.00 | 0.55 | 88 | 1013.9 |
| 20260506222047 | 63 | 360 | 4.0 | 5.0 | 0.00 | 0.00 | 0.55 | 86 | 1013.9 |
| 20260506221047 | 63 | 23 | 4.0 | 5.0 | 0.00 | 0.00 | 0.55 | 86 | 1013.9 |
| 20260506220049 | 63 | 293 | 3.0 | 4.0 | 0.00 | 0.00 | 0.55 | 84 | 1013.9 |
| 20260506215048 | 63 | 23 | 3.0 | 3.0 | 0.00 | 0.00 | 0.55 | 85 | 1013.6 |
| 20260506214047 | 63 | 293 | 3.0 | 3.0 | 0.00 | 0.00 | 0.55 | 84 | 1013.6 |
| 20260506213048 | 64 | 68 | 2.0 | 2.0 | 0.00 | 0.00 | 0.55 | 84 | 1013.6 |
| 20260506212047 | 64 | 315 | 4.0 | 4.0 | 0.00 | 0.00 | 0.55 | 82 | 1013.6 |